createdAt,value
2022-11-24T00:02:11.070Z,95397.44
2022-11-24T00:05:12.740Z,95408.06
2022-11-24T00:08:14.911Z,95399.94
2022-11-24T00:11:18.976Z,95405.09
2022-11-24T00:14:21.033Z,95407.59
2022-11-24T00:17:22.581Z,95419.03
2022-11-24T00:20:24.109Z,95412.75
2022-11-24T00:23:25.686Z,95420.56
2022-11-24T00:26:32.744Z,95414.56
2022-11-24T00:29:34.262Z,95420.56
2022-11-24T00:32:35.802Z,95430.19
2022-11-24T00:35:37.311Z,95434.50
2022-11-24T00:38:38.903Z,95439.63
2022-11-24T00:41:41.065Z,95442.28
2022-11-24T00:44:42.601Z,95445.63
2022-11-24T00:47:44.109Z,95445.47
2022-11-24T00:50:54.677Z,95448.13
2022-11-24T00:53:57.737Z,95443.66
2022-11-24T00:56:59.262Z,95448.13
2022-11-24T01:00:00.825Z,95454.56
2022-11-24T01:03:02.428Z,95464.91
2022-11-24T01:06:15.373Z,95471.19
2022-11-24T01:09:16.930Z,95463.53
2022-11-24T01:12:18.503Z,95486.56
2022-11-24T01:15:20.187Z,95492.88
2022-11-24T01:18:21.741Z,95488.69
2022-11-24T01:21:23.610Z,95487.19
2022-11-24T01:24:25.212Z,95490.81
2022-11-24T01:27:26.854Z,95492.09
2022-11-24T01:30:28.442Z,95499.78
2022-11-24T01:33:30.306Z,95511.53
2022-11-24T01:36:31.817Z,95505.38
2022-11-24T01:39:33.349Z,95522.97
2022-11-24T01:42:49.362Z,95520.59
2022-11-24T01:45:51.006Z,95525.38
2022-11-24T01:49:13.301Z,95533.03
2022-11-24T01:52:22.419Z,95540.16
2022-11-24T01:55:30.073Z,95545.44
2022-11-24T01:58:33.964Z,95549.97
2022-11-24T02:01:35.552Z,95553.59
2022-11-24T02:04:38.275Z,95553.59
2022-11-24T02:07:39.932Z,95556.91
2022-11-24T02:10:42.704Z,95551.06
2022-11-24T02:13:46.258Z,95555.41
2022-11-24T02:16:52.976Z,95567.81
2022-11-24T02:19:57.748Z,95564.47
2022-11-24T02:23:17.129Z,95571.47
2022-11-24T02:26:43.293Z,95585.00
2022-11-24T02:29:44.944Z,95580.72
2022-11-24T02:32:46.505Z,95581.94
2022-11-24T02:35:48.069Z,95589.22
2022-11-24T02:38:49.632Z,95585.88
2022-11-24T02:41:58.858Z,95586.88
2022-11-24T02:45:01.653Z,95588.00
2022-11-24T02:48:03.227Z,95600.41
2022-11-24T02:51:05.439Z,95594.41
2022-11-24T02:54:06.996Z,95592.91
2022-11-24T02:57:08.859Z,95598.34
2022-11-24T03:00:10.854Z,95597.66
2022-11-24T03:03:12.598Z,95600.88
2022-11-24T03:06:14.322Z,95608.97
2022-11-24T03:09:16.076Z,95612.44
2022-11-24T03:12:17.685Z,95613.16
2022-11-24T03:15:19.221Z,95618.72
2022-11-24T03:18:20.785Z,95625.56
2022-11-24T03:21:22.368Z,95633.66
2022-11-24T03:24:23.885Z,95630.88
2022-11-24T03:27:26.290Z,95631.72
2022-11-24T03:30:28.152Z,95631.53
2022-11-24T03:33:29.819Z,95642.84
2022-11-24T03:36:31.354Z,95647.16
2022-11-24T03:39:32.895Z,95648.84
2022-11-24T03:42:34.461Z,95656.53
2022-11-24T03:45:45.934Z,95648.56
2022-11-24T03:48:47.994Z,95651.22
2022-11-24T03:51:50.148Z,95638.63
2022-11-24T03:54:51.664Z,95645.59
2022-11-24T03:57:53.275Z,95650.91
2022-11-24T04:00:55.972Z,95659.59
2022-11-24T04:03:57.505Z,95654.28
2022-11-24T04:06:59.014Z,95645.34
2022-11-24T04:10:00.613Z,95642.84
2022-11-24T04:13:02.944Z,95644.50
2022-11-24T04:16:06.294Z,95651.50
2022-11-24T04:19:07.874Z,95648.66
2022-11-24T04:22:09.437Z,95654.66
2022-11-24T04:25:11.607Z,95671.44
2022-11-24T04:28:13.168Z,95662.50
2022-11-24T04:31:14.825Z,95656.50
2022-11-24T04:34:16.470Z,95661.66
2022-11-24T04:37:18.014Z,95671.44
2022-11-24T04:40:19.951Z,95672.41
2022-11-24T04:43:22.016Z,95680.50
2022-11-24T04:46:23.576Z,95685.28
2022-11-24T04:49:25.146Z,95684.44
2022-11-24T04:52:26.697Z,95680.22
2022-11-24T04:55:28.252Z,95687.19
2022-11-24T04:58:29.768Z,95690.31
2022-11-24T05:01:32.004Z,95706.50
2022-11-24T05:04:33.882Z,95711.91
2022-11-24T05:07:35.844Z,95721.69
2022-11-24T05:10:37.445Z,95727.13
2022-11-24T05:13:39.025Z,95722.81
2022-11-24T05:16:40.673Z,95723.63
2022-11-24T05:19:42.274Z,95725.31
2022-11-24T05:22:44.413Z,95735.06
2022-11-24T05:25:47.825Z,95729.78
2022-11-24T05:28:49.693Z,95729.63
2022-11-24T05:31:51.400Z,95732.19
2022-11-24T05:34:54.117Z,95742.66
2022-11-24T05:37:55.695Z,95740.84
2022-11-24T05:41:05.089Z,95754.63
2022-11-24T05:44:06.736Z,95755.47
2022-11-24T05:47:08.286Z,95755.34
2022-11-24T05:50:12.896Z,95773.59
2022-11-24T05:53:14.495Z,95767.16
2022-11-24T05:56:16.011Z,95768.72
2022-11-24T05:59:17.532Z,95778.88
2022-11-24T06:02:19.341Z,95770.63
2022-11-24T06:05:21.011Z,95778.28
2022-11-24T06:08:25.616Z,95773.97
2022-11-24T06:11:31.195Z,95779.81
2022-11-24T06:14:33.230Z,95780.66
2022-11-24T06:17:35.216Z,95778.84
2022-11-24T06:20:36.805Z,95784.03
2022-11-24T06:23:38.754Z,95785.66
2022-11-24T06:26:40.852Z,95779.56
2022-11-24T06:29:42.479Z,95782.22
2022-11-24T06:32:49.427Z,95771.63
2022-11-24T06:35:51.636Z,95784.31
2022-11-24T06:38:53.784Z,95780.94
2022-11-24T06:41:55.312Z,95781.09
2022-11-24T06:44:56.850Z,95783.34
2022-11-24T06:47:58.422Z,95781.66
2022-11-24T06:51:04.926Z,95785.47
2022-11-24T06:54:07.581Z,95790.06
2022-11-24T06:57:09.113Z,95784.06
2022-11-24T07:00:11.110Z,95789.38
2022-11-24T07:03:16.365Z,95786.84
2022-11-24T07:06:19.307Z,95788.97
2022-11-24T07:09:20.891Z,95774.34
2022-11-24T07:12:24.193Z,95779.34
2022-11-24T07:15:26.121Z,95793.59
2022-11-24T07:18:27.882Z,95793.59
2022-11-24T07:21:30.805Z,95797.91
2022-11-24T07:24:32.573Z,95793.88
2022-11-24T07:27:34.421Z,95798.22
2022-11-24T07:30:36.018Z,95807.16
2022-11-24T07:33:38.048Z,95799.31
2022-11-24T07:36:39.549Z,95799.19
2022-11-24T07:39:41.059Z,95795.41
2022-11-24T07:42:42.582Z,95809.22
2022-11-24T07:45:44.195Z,95811.44
2022-11-24T07:48:46.437Z,95803.34
2022-11-24T07:51:48.101Z,95799.25
2022-11-24T07:54:49.634Z,95802.63
2022-11-24T07:57:51.153Z,95797.44
2022-11-24T08:00:52.690Z,95816.13
2022-11-24T08:03:54.337Z,95820.03
2022-11-24T08:06:55.905Z,95808.44
2022-11-24T08:09:57.453Z,95824.03
2022-11-24T08:13:02.091Z,95812.00
2022-11-24T08:16:08.557Z,95813.25
2022-11-24T08:19:11.899Z,95811.66
2022-11-24T08:22:13.439Z,95814.44
2022-11-24T08:25:15.345Z,95810.47
2022-11-24T08:28:17.004Z,95821.06
2022-11-24T08:31:19.092Z,95815.28
2022-11-24T08:34:20.650Z,95820.00
2022-11-24T08:37:22.160Z,95804.47
2022-11-24T08:40:23.768Z,95806.66
2022-11-24T08:43:25.333Z,95809.84
2022-11-24T08:46:27.008Z,95803.97
2022-11-24T08:49:28.745Z,95812.44
2022-11-24T08:52:30.324Z,95809.19
2022-11-24T08:55:32.003Z,95809.41
2022-11-24T08:58:34.070Z,95803.13
2022-11-24T09:01:35.744Z,95807.44
2022-11-24T09:04:38.332Z,95818.31
2022-11-24T09:07:40.076Z,95811.03
2022-11-24T09:10:41.816Z,95817.69
2022-11-24T09:13:44.039Z,95803.66
2022-11-24T09:16:45.593Z,95826.16
2022-11-24T09:19:47.173Z,95817.72
2022-11-24T09:22:48.901Z,95817.94
2022-11-24T09:25:50.423Z,95825.75
2022-11-24T09:28:56.619Z,95828.28
2022-11-24T09:32:03.456Z,95839.56
2022-11-24T09:35:08.238Z,95836.78
2022-11-24T09:38:10.323Z,95841.94
2022-11-24T09:41:14.750Z,95864.06
2022-11-24T09:44:19.372Z,95853.03
2022-11-24T09:47:34.429Z,95856.53
2022-11-24T09:50:38.089Z,95861.31
2022-11-24T09:53:48.340Z,95860.94
2022-11-24T09:56:51.294Z,95873.00
2022-11-24T09:59:55.237Z,95876.13
2022-11-24T10:02:57.601Z,95871.28
2022-11-24T10:06:02.366Z,95869.06
2022-11-24T10:09:03.919Z,95868.81
2022-11-24T10:12:23.768Z,95882.72
2022-11-24T10:15:37.875Z,95887.50
2022-11-24T10:19:05.012Z,95879.28
2022-11-24T10:22:28.285Z,95892.03
2022-11-24T10:26:07.853Z,95880.00
2022-11-24T10:29:12.345Z,95896.97
2022-11-24T10:32:35.328Z,95897.41
2022-11-24T10:36:03.608Z,95890.25
2022-11-24T10:39:16.309Z,95895.28
2022-11-24T10:42:26.544Z,95907.59
2022-11-24T10:45:29.254Z,95908.59
2022-11-24T10:48:40.352Z,95898.78
2022-11-24T10:52:14.081Z,95909.56
2022-11-24T10:55:15.877Z,95910.41
2022-11-24T10:58:17.491Z,95914.41
2022-11-24T11:01:32.242Z,95916.47
2022-11-24T11:04:35.538Z,95922.50
2022-11-24T11:07:37.105Z,95921.38
2022-11-24T11:10:38.712Z,95917.28
2022-11-24T11:14:01.586Z,95918.81
2022-11-24T11:17:28.736Z,95921.91
2022-11-24T11:20:33.009Z,95934.91
2022-11-24T11:23:36.075Z,95933.22
2022-11-24T11:26:38.199Z,95920.91
2022-11-24T11:36:23.339Z,95917.41
2022-11-24T11:39:45.320Z,95918.25
2022-11-24T11:43:03.381Z,95922.59
2022-11-24T11:46:12.776Z,95924.97
2022-11-24T11:49:14.746Z,95925.94
2022-11-24T11:52:49.658Z,95919.34
2022-11-24T11:56:22.740Z,95931.66
2022-11-24T11:59:49.329Z,95926.19
2022-11-24T12:03:10.826Z,95924.06
2022-11-24T12:06:27.418Z,95923.38
2022-11-24T12:10:01.628Z,95926.19
2022-11-24T12:13:21.413Z,95937.91
2022-11-24T12:16:42.336Z,95933.78
2022-11-24T12:19:50.032Z,95934.03
2022-11-24T12:23:29.375Z,95938.22
2022-11-24T12:26:54.898Z,95940.44
2022-11-24T12:30:14.508Z,95942.94
2022-11-24T12:33:35.182Z,95934.97
2022-11-24T12:36:50.276Z,95939.81
2022-11-24T12:40:09.897Z,95940.38
2022-11-24T12:43:39.507Z,95935.88
2022-11-24T12:46:59.160Z,95938.22
2022-11-24T12:50:15.862Z,95938.91
2022-11-24T12:53:26.193Z,95941.88
2022-11-24T12:56:38.187Z,95946.38
2022-11-24T12:59:52.174Z,95947.03
2022-11-24T13:03:05.846Z,95952.22
2022-11-24T13:06:12.455Z,95957.41
2022-11-24T13:09:14.369Z,95957.25
2022-11-24T13:12:16.197Z,95958.09
2022-11-24T13:15:43.465Z,95965.06
2022-11-24T13:19:07.175Z,95968.88
2022-11-24T13:22:09.250Z,95970.69
2022-11-24T13:25:16.042Z,95978.13
2022-11-24T13:29:18.220Z,95979.44
2022-11-24T13:32:46.796Z,95969.91
2022-11-24T13:36:04.176Z,95981.41
2022-11-24T13:39:20.324Z,95979.72
2022-11-24T13:42:41.527Z,95987.03
2022-11-24T13:45:45.235Z,95995.16
2022-11-24T13:48:47.001Z,95985.63
2022-11-24T13:51:48.548Z,95983.97
2022-11-24T13:54:50.363Z,95988.75
2022-11-24T13:57:56.717Z,95995.34
2022-11-24T14:01:01.818Z,96001.13
2022-11-24T14:04:33.979Z,95991.78
2022-11-24T14:07:35.737Z,96006.59
2022-11-24T14:10:40.639Z,96010.38
2022-11-24T14:13:42.210Z,96010.38
2022-11-24T14:16:43.764Z,96018.38
2022-11-24T14:19:48.593Z,96018.19
2022-11-24T14:22:50.551Z,96011.06
2022-11-24T14:25:52.826Z,96000.41
2022-11-24T14:29:02.502Z,96013.56
2022-11-24T14:32:04.862Z,96010.91
2022-11-24T14:35:27.875Z,96011.75
2022-11-24T14:38:29.594Z,96014.56
2022-11-24T14:41:33.217Z,96006.91
2022-11-24T14:44:58.681Z,96015.84
2022-11-24T14:48:00.306Z,96028.16
2022-11-24T14:51:15.480Z,96034.59
2022-11-24T14:54:20.189Z,96030.97
2022-11-24T14:57:41.982Z,96034.59
2022-11-24T15:00:43.633Z,96027.59
2022-11-24T15:03:45.763Z,96038.56
2022-11-24T15:07:00.463Z,96050.00
2022-11-24T15:10:04.400Z,96054.50
2022-11-24T15:13:18.036Z,96057.16
2022-11-24T15:16:22.345Z,96053.66
2022-11-24T15:19:28.325Z,96058.16
2022-11-24T15:22:40.098Z,96060.81
2022-11-24T15:25:42.072Z,96057.91
2022-11-24T15:28:46.727Z,96074.38
2022-11-24T15:31:52.593Z,96068.34
2022-11-24T15:34:54.592Z,96059.84
2022-11-24T15:37:56.142Z,96064.31
2022-11-24T15:41:01.678Z,96060.00
2022-11-24T15:44:03.328Z,96060.13
2022-11-24T15:47:04.915Z,96064.91
2022-11-24T15:50:07.487Z,96065.31
2022-11-24T15:53:37.751Z,96069.97
2022-11-24T15:56:41.856Z,96068.56
2022-11-24T15:59:43.407Z,96069.84
2022-11-24T16:02:45.238Z,96071.09
2022-11-24T16:05:51.110Z,96068.34
2022-11-24T16:08:53.525Z,96074.22
2022-11-24T16:11:55.040Z,96084.88
2022-11-24T16:14:56.600Z,96101.38
2022-11-24T16:17:58.150Z,96092.28
2022-11-24T16:20:59.690Z,96092.44
2022-11-24T16:24:01.262Z,96100.13
2022-11-24T16:27:02.769Z,96092.84
2022-11-24T16:30:05.920Z,96104.72
2022-11-24T16:33:07.502Z,96098.31
2022-11-24T16:36:09.261Z,96092.72
2022-11-24T16:39:10.845Z,96079.69
2022-11-24T16:42:12.405Z,96092.94
2022-11-24T16:45:14.109Z,96090.13
2022-11-24T16:48:15.641Z,96095.03
2022-11-24T16:51:19.355Z,96088.56
2022-11-24T16:54:21.068Z,96093.44
2022-11-24T16:57:22.715Z,96093.97
2022-11-24T17:00:24.389Z,96102.31
2022-11-24T17:03:25.926Z,96088.34
2022-11-24T17:06:27.711Z,96084.56
2022-11-24T17:09:29.251Z,96092.06
2022-11-24T17:12:30.789Z,96086.44
2022-11-24T17:15:36.564Z,96089.63
2022-11-24T17:18:41.654Z,96093.53
2022-11-24T17:21:43.191Z,96090.56
2022-11-24T17:24:44.682Z,96096.41
2022-11-24T17:27:46.156Z,96089.25
2022-11-24T17:30:47.648Z,96102.63
2022-11-24T17:33:50.263Z,96110.25
2022-11-24T17:36:51.755Z,96116.06
2022-11-24T17:40:20.268Z,96114.78
2022-11-24T17:43:14.776Z,96109.50
2022-11-24T17:46:16.570Z,96111.09
2022-11-24T17:49:18.380Z,96122.13
2022-11-24T17:52:21.394Z,96124.22
2022-11-24T17:55:23.301Z,96122.06
2022-11-24T17:58:27.252Z,96119.69
2022-11-24T18:01:30.202Z,96120.22
2022-11-24T18:04:31.848Z,96123.22
2022-11-24T18:07:36.602Z,96129.75
2022-11-24T18:10:38.828Z,96123.03
2022-11-24T18:13:56.699Z,96119.56
2022-11-24T18:17:01.568Z,96118.09
2022-11-24T18:20:03.267Z,96120.03
2022-11-24T18:23:06.071Z,96124.63
2022-11-24T18:26:10.061Z,96136.06
2022-11-24T18:29:11.848Z,96128.97
2022-11-24T18:32:13.534Z,96128.81
2022-11-24T18:35:15.161Z,96132.28
2022-11-24T18:38:16.736Z,96134.41
2022-11-24T18:41:18.514Z,96133.75
2022-11-24T18:44:20.147Z,96132.66
2022-11-24T18:47:22.157Z,96132.41
2022-11-24T18:50:23.747Z,96137.47
2022-11-24T18:53:26.855Z,96133.00
2022-11-24T18:56:29.124Z,96127.84
2022-11-24T18:59:30.645Z,96122.53
2022-11-24T19:02:32.376Z,96117.59
2022-11-24T19:05:34.620Z,96113.56
2022-11-24T19:08:36.240Z,96120.88
2022-11-24T19:11:40.044Z,96117.56
2022-11-24T19:14:41.595Z,96116.28
2022-11-24T19:17:47.070Z,96120.13
2022-11-24T19:20:48.914Z,96110.88
2022-11-24T19:23:50.588Z,96106.81
2022-11-24T19:26:52.289Z,96115.25
2022-11-24T19:29:54.946Z,96113.97
2022-11-24T19:32:57.542Z,96114.34
2022-11-24T19:36:07.877Z,96101.63
2022-11-24T19:39:16.472Z,96109.94
2022-11-24T19:42:18.048Z,96116.56
2022-11-24T19:45:19.588Z,96122.25
2022-11-24T19:48:21.112Z,96112.13
2022-11-24T19:51:25.482Z,96109.03
2022-11-24T19:54:27.135Z,96114.94
2022-11-24T19:57:28.877Z,96117.84
2022-11-24T20:00:32.087Z,96114.25
2022-11-24T20:03:34.468Z,96122.19
2022-11-24T20:06:40.363Z,96125.22
2022-11-24T20:09:42.007Z,96117.50
2022-11-24T20:12:43.519Z,96122.22
2022-11-24T20:15:45.405Z,96115.47
2022-11-24T20:18:47.717Z,96110.69
2022-11-24T20:21:49.928Z,96116.34
2022-11-24T20:24:51.478Z,96105.28
2022-11-24T20:27:53.129Z,96117.91
2022-11-24T20:30:54.650Z,96109.38
2022-11-24T20:33:56.932Z,96117.66
2022-11-24T20:36:58.487Z,96116.47
2022-11-24T20:40:02.289Z,96124.63
2022-11-24T20:43:03.820Z,96133.88
2022-11-24T20:46:08.005Z,96130.75
2022-11-24T20:49:13.131Z,96130.13
2022-11-24T20:52:14.697Z,96123.31
2022-11-24T20:55:16.320Z,96117.41
2022-11-24T20:58:17.990Z,96114.28
2022-11-24T21:01:25.582Z,96110.19
2022-11-24T21:04:27.339Z,96116.56
2022-11-24T21:07:28.935Z,96113.31
2022-11-24T21:10:30.492Z,96109.34
2022-11-24T21:13:34.251Z,96115.56
2022-11-24T21:16:37.952Z,96119.53
2022-11-24T21:19:39.511Z,96121.53
2022-11-24T21:22:41.028Z,96119.16
2022-11-24T21:25:42.986Z,96123.94
2022-11-24T21:28:46.126Z,96120.59
2022-11-24T21:31:47.796Z,96118.28
2022-11-24T21:34:49.340Z,96112.50
2022-11-24T21:37:50.983Z,96110.81
2022-11-24T21:40:52.525Z,96117.19
2022-11-24T21:43:58.068Z,96119.81
2022-11-24T21:46:59.575Z,96115.50
2022-11-24T21:50:01.110Z,96113.56
2022-11-24T21:53:03.716Z,96127.84
2022-11-24T21:56:09.758Z,96126.16
2022-11-24T21:59:11.312Z,96112.81
2022-11-24T22:02:13.379Z,96127.47
2022-11-24T22:05:15.102Z,96124.22
2022-11-24T22:08:16.665Z,96136.69
2022-11-24T22:11:21.073Z,96136.06
2022-11-24T22:14:22.631Z,96137.97
2022-11-24T22:17:24.126Z,96132.94
2022-11-24T22:20:25.627Z,96129.78
2022-11-24T22:23:27.252Z,96134.44
2022-11-24T22:26:29.880Z,96124.97
2022-11-24T22:29:31.417Z,96128.78
2022-11-24T22:32:32.919Z,96120.13
2022-11-24T22:35:34.443Z,96123.03
2022-11-24T22:38:36.299Z,96125.03
2022-11-24T22:41:37.838Z,96115.69
2022-11-24T22:44:39.383Z,96108.94
2022-11-24T22:47:40.874Z,96106.53
2022-11-24T22:50:42.435Z,96105.78
2022-11-24T22:53:52.382Z,96096.31
2022-11-24T22:56:53.963Z,96099.03
2022-11-24T22:59:55.502Z,96094.84
2022-11-24T23:02:57.130Z,96088.75
2022-11-24T23:06:00.600Z,96088.97
2022-11-24T23:09:03.408Z,96092.53
2022-11-24T23:12:05.279Z,96095.31
2022-11-24T23:15:07.405Z,96088.34
2022-11-24T23:18:08.913Z,96090.25
2022-11-24T23:21:14.907Z,96094.69
2022-11-24T23:24:16.495Z,96098.16
2022-11-24T23:27:18.077Z,96103.53
2022-11-24T23:30:19.876Z,96107.97
2022-11-24T23:33:21.413Z,96112.28
2022-11-24T23:36:23.079Z,96106.28
2022-11-24T23:39:24.592Z,96110.59
2022-11-24T23:42:26.094Z,96104.63
2022-11-24T23:45:27.699Z,96112.53
2022-11-24T23:48:29.419Z,96111.88
2022-11-24T23:51:32.328Z,96117.25
2022-11-24T23:54:34.064Z,96118.44
2022-11-24T23:57:35.882Z,96121.28
